sensor_id;sensor_type;location;lat;lon;timestamp;P1;durP1;ratioP1;P2;durP2;ratioP2
66702;SDS011;60933;46.398;-63.798;2023-07-31T00:00:42;1.05;;;0.60;;
66702;SDS011;60933;46.398;-63.798;2023-07-31T00:03:09;0.90;;;0.52;;
66702;SDS011;60933;46.398;-63.798;2023-07-31T00:05:35;0.70;;;0.50;;
66702;SDS011;60933;46.398;-63.798;2023-07-31T00:08:01;1.73;;;0.80;;
66702;SDS011;60933;46.398;-63.798;2023-07-31T00:10:28;1.38;;;0.70;;
66702;SDS011;60933;46.398;-63.798;2023-07-31T00:12:54;1.80;;;0.70;;
66702;SDS011;60933;46.398;-63.798;2023-07-31T00:15:20;1.02;;;0.60;;
66702;SDS011;60933;46.398;-63.798;2023-07-31T00:17:46;2.20;;;0.70;;
66702;SDS011;60933;46.398;-63.798;2023-07-31T00:20:12;1.75;;;0.80;;
66702;SDS011;60933;46.398;-63.798;2023-07-31T00:22:39;1.05;;;0.70;;
66702;SDS011;60933;46.398;-63.798;2023-07-31T00:25:05;0.88;;;0.60;;
66702;SDS011;60933;46.398;-63.798;2023-07-31T00:27:31;2.13;;;0.75;;
66702;SDS011;60933;46.398;-63.798;2023-07-31T00:29:58;0.90;;;0.50;;
66702;SDS011;60933;46.398;-63.798;2023-07-31T00:32:24;1.10;;;0.82;;
66702;SDS011;60933;46.398;-63.798;2023-07-31T00:34:50;1.05;;;0.52;;
66702;SDS011;60933;46.398;-63.798;2023-07-31T00:37:16;1.73;;;0.70;;
66702;SDS011;60933;46.398;-63.798;2023-07-31T00:39:42;0.80;;;0.52;;
66702;SDS011;60933;46.398;-63.798;2023-07-31T00:42:08;2.15;;;0.70;;
66702;SDS011;60933;46.398;-63.798;2023-07-31T00:44:34;0.98;;;0.60;;
66702;SDS011;60933;46.398;-63.798;2023-07-31T00:47:00;1.40;;;0.60;;
66702;SDS011;60933;46.398;-63.798;2023-07-31T00:49:27;1.75;;;0.57;;
66702;SDS011;60933;46.398;-63.798;2023-07-31T00:51:53;2.38;;;1.20;;
66702;SDS011;60933;46.398;-63.798;2023-07-31T00:54:19;1.33;;;0.70;;
66702;SDS011;60933;46.398;-63.798;2023-07-31T00:56:45;1.67;;;0.60;;
66702;SDS011;60933;46.398;-63.798;2023-07-31T00:59:14;1.33;;;0.63;;
66702;SDS011;60933;46.398;-63.798;2023-07-31T01:01:40;1.70;;;1.08;;
66702;SDS011;60933;46.398;-63.798;2023-07-31T01:04:06;1.38;;;0.60;;
66702;SDS011;60933;46.398;-63.798;2023-07-31T01:12:32;1.13;;;0.90;;
66702;SDS011;60933;46.398;-63.798;2023-07-31T01:15:07;1.02;;;0.90;;
66702;SDS011;60933;46.398;-63.798;2023-07-31T01:17:39;1.05;;;0.90;;
66702;SDS011;60933;46.398;-63.798;2023-07-31T01:20:10;1.30;;;1.00;;
66702;SDS011;60933;46.398;-63.798;2023-07-31T01:28:25;1.15;;;0.70;;
66702;SDS011;60933;46.398;-63.798;2023-07-31T01:31:14;1.23;;;0.70;;
66702;SDS011;60933;46.398;-63.798;2023-07-31T01:33:45;1.20;;;0.70;;
66702;SDS011;60933;46.398;-63.798;2023-07-31T01:36:12;3.05;;;0.82;;
66702;SDS011;60933;46.398;-63.798;2023-07-31T01:38:39;1.42;;;0.70;;
66702;SDS011;60933;46.398;-63.798;2023-07-31T01:41:05;1.20;;;0.70;;
66702;SDS011;60933;46.398;-63.798;2023-07-31T01:43:31;1.40;;;0.60;;
66702;SDS011;60933;46.398;-63.798;2023-07-31T01:45:57;0.77;;;0.57;;
66702;SDS011;60933;46.398;-63.798;2023-07-31T01:48:23;1.33;;;0.70;;
66702;SDS011;60933;46.398;-63.798;2023-07-31T01:50:50;1.20;;;0.80;;
66702;SDS011;60933;46.398;-63.798;2023-07-31T01:53:16;0.80;;;0.45;;
66702;SDS011;60933;46.398;-63.798;2023-07-31T01:55:42;1.70;;;0.63;;
66702;SDS011;60933;46.398;-63.798;2023-07-31T01:58:08;1.05;;;0.70;;
66702;SDS011;60933;46.398;-63.798;2023-07-31T02:00:34;1.13;;;0.88;;
66702;SDS011;60933;46.398;-63.798;2023-07-31T02:03:01;1.33;;;0.70;;
66702;SDS011;60933;46.398;-63.798;2023-07-31T02:05:27;0.90;;;0.50;;
66702;SDS011;60933;46.398;-63.798;2023-07-31T02:07:53;0.60;;;0.50;;
66702;SDS011;60933;46.398;-63.798;2023-07-31T02:10:19;1.10;;;0.60;;
66702;SDS011;60933;46.398;-63.798;2023-07-31T02:12:45;1.30;;;0.80;;
66702;SDS011;60933;46.398;-63.798;2023-07-31T02:15:11;1.60;;;0.80;;
66702;SDS011;60933;46.398;-63.798;2023-07-31T02:17:37;2.33;;;0.80;;
66702;SDS011;60933;46.398;-63.798;2023-07-31T02:20:03;1.70;;;0.50;;
66702;SDS011;60933;46.398;-63.798;2023-07-31T02:22:30;1.38;;;0.52;;
66702;SDS011;60933;46.398;-63.798;2023-07-31T02:24:56;1.20;;;0.85;;
66702;SDS011;60933;46.398;-63.798;2023-07-31T02:27:29;0.75;;;0.50;;
66702;SDS011;60933;46.398;-63.798;2023-07-31T02:29:55;1.10;;;0.45;;
66702;SDS011;60933;46.398;-63.798;2023-07-31T02:32:21;1.25;;;0.60;;
66702;SDS011;60933;46.398;-63.798;2023-07-31T02:34:47;2.25;;;0.60;;
66702;SDS011;60933;46.398;-63.798;2023-07-31T02:37:13;1.58;;;0.70;;
66702;SDS011;60933;46.398;-63.798;2023-07-31T02:39:39;0.90;;;0.60;;
66702;SDS011;60933;46.398;-63.798;2023-07-31T02:42:06;0.95;;;0.70;;
66702;SDS011;60933;46.398;-63.798;2023-07-31T02:44:32;1.13;;;0.50;;
66702;SDS011;60933;46.398;-63.798;2023-07-31T02:46:58;1.15;;;0.70;;
66702;SDS011;60933;46.398;-63.798;2023-07-31T02:49:24;1.60;;;0.50;;
66702;SDS011;60933;46.398;-63.798;2023-07-31T02:51:50;1.08;;;0.63;;
66702;SDS011;60933;46.398;-63.798;2023-07-31T02:54:16;1.00;;;0.60;;
66702;SDS011;60933;46.398;-63.798;2023-07-31T02:56:42;1.20;;;0.82;;
66702;SDS011;60933;46.398;-63.798;2023-07-31T02:59:08;0.75;;;0.55;;
66702;SDS011;60933;46.398;-63.798;2023-07-31T03:01:34;0.98;;;0.47;;
66702;SDS011;60933;46.398;-63.798;2023-07-31T03:04:01;0.73;;;0.60;;
66702;SDS011;60933;46.398;-63.798;2023-07-31T03:06:27;0.55;;;0.40;;
66702;SDS011;60933;46.398;-63.798;2023-07-31T03:08:53;1.02;;;0.93;;
66702;SDS011;60933;46.398;-63.798;2023-07-31T03:11:19;0.90;;;0.50;;
66702;SDS011;60933;46.398;-63.798;2023-07-31T03:13:45;0.95;;;0.63;;
66702;SDS011;60933;46.398;-63.798;2023-07-31T03:16:11;1.65;;;0.80;;
66702;SDS011;60933;46.398;-63.798;2023-07-31T03:18:37;1.70;;;0.50;;
66702;SDS011;60933;46.398;-63.798;2023-07-31T03:21:04;1.27;;;0.65;;
66702;SDS011;60933;46.398;-63.798;2023-07-31T03:23:30;0.88;;;0.63;;
66702;SDS011;60933;46.398;-63.798;2023-07-31T03:25:57;1.48;;;0.50;;
66702;SDS011;60933;46.398;-63.798;2023-07-31T03:28:23;1.48;;;0.50;;
66702;SDS011;60933;46.398;-63.798;2023-07-31T03:30:50;0.88;;;0.50;;
66702;SDS011;60933;46.398;-63.798;2023-07-31T03:33:17;1.27;;;0.50;;
66702;SDS011;60933;46.398;-63.798;2023-07-31T03:35:43;1.60;;;0.68;;
66702;SDS011;60933;46.398;-63.798;2023-07-31T03:38:09;0.85;;;0.50;;
66702;SDS011;60933;46.398;-63.798;2023-07-31T03:40:35;0.60;;;0.43;;
66702;SDS011;60933;46.398;-63.798;2023-07-31T03:43:01;0.70;;;0.50;;
66702;SDS011;60933;46.398;-63.798;2023-07-31T03:45:27;1.02;;;0.45;;
66702;SDS011;60933;46.398;-63.798;2023-07-31T03:47:53;0.82;;;0.52;;
66702;SDS011;60933;46.398;-63.798;2023-07-31T03:50:20;1.02;;;0.80;;
66702;SDS011;60933;46.398;-63.798;2023-07-31T03:52:46;0.80;;;0.50;;
66702;SDS011;60933;46.398;-63.798;2023-07-31T03:55:12;0.98;;;0.60;;
66702;SDS011;60933;46.398;-63.798;2023-07-31T03:57:38;1.35;;;0.60;;
66702;SDS011;60933;46.398;-63.798;2023-07-31T04:00:05;0.68;;;0.32;;
66702;SDS011;60933;46.398;-63.798;2023-07-31T04:02:31;1.38;;;0.52;;
66702;SDS011;60933;46.398;-63.798;2023-07-31T04:04:58;0.80;;;0.50;;
66702;SDS011;60933;46.398;-63.798;2023-07-31T04:07:24;0.70;;;0.38;;
66702;SDS011;60933;46.398;-63.798;2023-07-31T04:09:50;0.70;;;0.65;;
66702;SDS011;60933;46.398;-63.798;2023-07-31T04:12:16;1.10;;;0.50;;
66702;SDS011;60933;46.398;-63.798;2023-07-31T04:14:42;0.77;;;0.43;;
66702;SDS011;60933;46.398;-63.798;2023-07-31T04:17:08;0.55;;;0.40;;
66702;SDS011;60933;46.398;-63.798;2023-07-31T04:19:34;0.95;;;0.60;;
66702;SDS011;60933;46.398;-63.798;2023-07-31T04:22:00;1.77;;;0.50;;
66702;SDS011;60933;46.398;-63.798;2023-07-31T04:24:27;0.98;;;0.50;;
66702;SDS011;60933;46.398;-63.798;2023-07-31T04:26:53;1.20;;;0.70;;
66702;SDS011;60933;46.398;-63.798;2023-07-31T04:29:19;0.80;;;0.50;;
66702;SDS011;60933;46.398;-63.798;2023-07-31T04:31:45;0.85;;;0.65;;
66702;SDS011;60933;46.398;-63.798;2023-07-31T04:34:13;0.80;;;0.60;;
66702;SDS011;60933;46.398;-63.798;2023-07-31T04:36:39;1.10;;;0.80;;
66702;SDS011;60933;46.398;-63.798;2023-07-31T04:39:05;0.50;;;0.40;;
66702;SDS011;60933;46.398;-63.798;2023-07-31T04:41:31;1.30;;;0.50;;
66702;SDS011;60933;46.398;-63.798;2023-07-31T04:43:57;1.23;;;0.32;;
66702;SDS011;60933;46.398;-63.798;2023-07-31T04:46:23;0.70;;;0.35;;
66702;SDS011;60933;46.398;-63.798;2023-07-31T04:48:49;0.68;;;0.40;;
66702;SDS011;60933;46.398;-63.798;2023-07-31T04:51:15;0.70;;;0.35;;
66702;SDS011;60933;46.398;-63.798;2023-07-31T04:53:41;1.30;;;0.70;;
66702;SDS011;60933;46.398;-63.798;2023-07-31T04:56:08;2.28;;;0.50;;
66702;SDS011;60933;46.398;-63.798;2023-07-31T04:58:34;0.75;;;0.50;;
66702;SDS011;60933;46.398;-63.798;2023-07-31T05:01:00;0.52;;;0.43;;
66702;SDS011;60933;46.398;-63.798;2023-07-31T05:03:26;0.73;;;0.38;;
66702;SDS011;60933;46.398;-63.798;2023-07-31T05:05:52;0.40;;;0.20;;
66702;SDS011;60933;46.398;-63.798;2023-07-31T05:08:18;0.80;;;0.40;;
66702;SDS011;60933;46.398;-63.798;2023-07-31T05:10:44;0.93;;;0.50;;
66702;SDS011;60933;46.398;-63.798;2023-07-31T05:13:10;0.38;;;0.30;;
66702;SDS011;60933;46.398;-63.798;2023-07-31T05:15:37;0.75;;;0.50;;
66702;SDS011;60933;46.398;-63.798;2023-07-31T05:18:04;0.63;;;0.32;;
66702;SDS011;60933;46.398;-63.798;2023-07-31T05:20:30;0.68;;;0.50;;
66702;SDS011;60933;46.398;-63.798;2023-07-31T05:22:56;0.52;;;0.30;;
66702;SDS011;60933;46.398;-63.798;2023-07-31T05:25:22;0.50;;;0.30;;
66702;SDS011;60933;46.398;-63.798;2023-07-31T05:27:48;0.90;;;0.40;;
66702;SDS011;60933;46.398;-63.798;2023-07-31T05:30:14;0.95;;;0.40;;
66702;SDS011;60933;46.398;-63.798;2023-07-31T05:32:40;1.13;;;0.55;;
66702;SDS011;60933;46.398;-63.798;2023-07-31T05:35:06;0.55;;;0.40;;
66702;SDS011;60933;46.398;-63.798;2023-07-31T05:37:32;1.27;;;0.40;;
66702;SDS011;60933;46.398;-63.798;2023-07-31T05:39:59;0.75;;;0.52;;
66702;SDS011;60933;46.398;-63.798;2023-07-31T05:42:25;0.63;;;0.50;;
66702;SDS011;60933;46.398;-63.798;2023-07-31T05:44:51;0.63;;;0.50;;
66702;SDS011;60933;46.398;-63.798;2023-07-31T05:47:17;0.68;;;0.43;;
66702;SDS011;60933;46.398;-63.798;2023-07-31T05:49:43;1.05;;;0.40;;
66702;SDS011;60933;46.398;-63.798;2023-07-31T05:52:09;0.82;;;0.40;;
66702;SDS011;60933;46.398;-63.798;2023-07-31T05:54:35;0.95;;;0.57;;
66702;SDS011;60933;46.398;-63.798;2023-07-31T05:57:02;1.42;;;0.40;;
66702;SDS011;60933;46.398;-63.798;2023-07-31T05:59:28;1.23;;;0.50;;
66702;SDS011;60933;46.398;-63.798;2023-07-31T06:01:54;0.77;;;0.52;;
66702;SDS011;60933;46.398;-63.798;2023-07-31T06:04:20;1.77;;;0.65;;
66702;SDS011;60933;46.398;-63.798;2023-07-31T06:06:47;0.65;;;0.40;;
66702;SDS011;60933;46.398;-63.798;2023-07-31T06:09:13;0.70;;;0.50;;
66702;SDS011;60933;46.398;-63.798;2023-07-31T06:11:39;0.77;;;0.35;;
66702;SDS011;60933;46.398;-63.798;2023-07-31T06:14:05;1.05;;;0.68;;
66702;SDS011;60933;46.398;-63.798;2023-07-31T06:16:31;0.60;;;0.50;;
66702;SDS011;60933;46.398;-63.798;2023-07-31T06:18:57;1.10;;;0.60;;
66702;SDS011;60933;46.398;-63.798;2023-07-31T06:21:23;1.15;;;0.70;;
66702;SDS011;60933;46.398;-63.798;2023-07-31T06:23:49;1.67;;;0.63;;
66702;SDS011;60933;46.398;-63.798;2023-07-31T06:26:15;0.77;;;0.38;;
66702;SDS011;60933;46.398;-63.798;2023-07-31T06:28:42;0.63;;;0.30;;
66702;SDS011;60933;46.398;-63.798;2023-07-31T06:31:08;1.25;;;0.40;;
66702;SDS011;60933;46.398;-63.798;2023-07-31T06:33:34;1.30;;;0.40;;
66702;SDS011;60933;46.398;-63.798;2023-07-31T06:36:00;0.63;;;0.45;;
66702;SDS011;60933;46.398;-63.798;2023-07-31T06:38:26;1.00;;;0.50;;
66702;SDS011;60933;46.398;-63.798;2023-07-31T06:40:53;2.20;;;0.60;;
66702;SDS011;60933;46.398;-63.798;2023-07-31T06:43:19;1.13;;;0.30;;
66702;SDS011;60933;46.398;-63.798;2023-07-31T06:45:45;1.20;;;0.55;;
66702;SDS011;60933;46.398;-63.798;2023-07-31T06:48:12;2.88;;;0.70;;
66702;SDS011;60933;46.398;-63.798;2023-07-31T06:50:38;1.00;;;0.50;;
66702;SDS011;60933;46.398;-63.798;2023-07-31T06:53:04;1.33;;;0.40;;
66702;SDS011;60933;46.398;-63.798;2023-07-31T06:55:30;1.17;;;0.43;;
66702;SDS011;60933;46.398;-63.798;2023-07-31T06:57:57;0.70;;;0.43;;
66702;SDS011;60933;46.398;-63.798;2023-07-31T07:00:23;0.40;;;0.30;;
66702;SDS011;60933;46.398;-63.798;2023-07-31T07:02:49;0.52;;;0.30;;
66702;SDS011;60933;46.398;-63.798;2023-07-31T07:05:16;1.27;;;0.32;;
66702;SDS011;60933;46.398;-63.798;2023-07-31T07:07:43;1.08;;;0.40;;
66702;SDS011;60933;46.398;-63.798;2023-07-31T07:10:09;1.10;;;0.50;;
66702;SDS011;60933;46.398;-63.798;2023-07-31T07:12:36;0.70;;;0.40;;
66702;SDS011;60933;46.398;-63.798;2023-07-31T07:15:02;0.52;;;0.32;;
66702;SDS011;60933;46.398;-63.798;2023-07-31T07:17:29;3.10;;;0.60;;
66702;SDS011;60933;46.398;-63.798;2023-07-31T07:19:58;0.75;;;0.40;;
66702;SDS011;60933;46.398;-63.798;2023-07-31T07:22:25;0.50;;;0.38;;
66702;SDS011;60933;46.398;-63.798;2023-07-31T07:24:52;0.80;;;0.50;;
66702;SDS011;60933;46.398;-63.798;2023-07-31T07:27:19;1.60;;;0.45;;
66702;SDS011;60933;46.398;-63.798;2023-07-31T07:29:45;0.50;;;0.30;;
66702;SDS011;60933;46.398;-63.798;2023-07-31T07:32:12;1.02;;;0.22;;
66702;SDS011;60933;46.398;-63.798;2023-07-31T07:34:38;1.15;;;0.60;;
66702;SDS011;60933;46.398;-63.798;2023-07-31T07:37:04;1.30;;;0.70;;
66702;SDS011;60933;46.398;-63.798;2023-07-31T07:39:31;0.93;;;0.55;;
66702;SDS011;60933;46.398;-63.798;2023-07-31T07:41:57;1.35;;;0.50;;
66702;SDS011;60933;46.398;-63.798;2023-07-31T07:44:23;0.43;;;0.20;;
66702;SDS011;60933;46.398;-63.798;2023-07-31T07:46:49;1.40;;;0.40;;
66702;SDS011;60933;46.398;-63.798;2023-07-31T07:49:15;0.98;;;0.50;;
66702;SDS011;60933;46.398;-63.798;2023-07-31T07:51:41;0.70;;;0.43;;
66702;SDS011;60933;46.398;-63.798;2023-07-31T07:54:07;1.50;;;0.38;;
66702;SDS011;60933;46.398;-63.798;2023-07-31T07:56:34;2.70;;;1.20;;
66702;SDS011;60933;46.398;-63.798;2023-07-31T07:59:01;3.85;;;0.95;;
66702;SDS011;60933;46.398;-63.798;2023-07-31T08:01:27;3.05;;;0.88;;
66702;SDS011;60933;46.398;-63.798;2023-07-31T08:03:53;2.45;;;0.70;;
66702;SDS011;60933;46.398;-63.798;2023-07-31T08:06:19;1.20;;;0.40;;
66702;SDS011;60933;46.398;-63.798;2023-07-31T08:08:45;0.60;;;0.30;;
66702;SDS011;60933;46.398;-63.798;2023-07-31T08:11:11;0.57;;;0.32;;
66702;SDS011;60933;46.398;-63.798;2023-07-31T08:13:37;0.57;;;0.30;;
66702;SDS011;60933;46.398;-63.798;2023-07-31T08:16:04;0.60;;;0.40;;
66702;SDS011;60933;46.398;-63.798;2023-07-31T08:18:33;1.80;;;0.90;;
66702;SDS011;60933;46.398;-63.798;2023-07-31T08:20:59;2.75;;;0.70;;
66702;SDS011;60933;46.398;-63.798;2023-07-31T08:23:26;0.73;;;0.40;;
66702;SDS011;60933;46.398;-63.798;2023-07-31T08:25:52;1.30;;;0.63;;
66702;SDS011;60933;46.398;-63.798;2023-07-31T08:28:19;2.20;;;0.65;;
66702;SDS011;60933;46.398;-63.798;2023-07-31T08:30:45;1.27;;;0.52;;
66702;SDS011;60933;46.398;-63.798;2023-07-31T08:33:11;1.70;;;0.40;;
66702;SDS011;60933;46.398;-63.798;2023-07-31T08:35:37;0.98;;;0.40;;
66702;SDS011;60933;46.398;-63.798;2023-07-31T08:38:03;1.17;;;0.60;;
66702;SDS011;60933;46.398;-63.798;2023-07-31T08:40:29;1.15;;;0.50;;
66702;SDS011;60933;46.398;-63.798;2023-07-31T08:42:55;1.95;;;0.73;;
66702;SDS011;60933;46.398;-63.798;2023-07-31T08:45:24;0.65;;;0.45;;
66702;SDS011;60933;46.398;-63.798;2023-07-31T08:47:51;1.50;;;1.00;;
66702;SDS011;60933;46.398;-63.798;2023-07-31T08:50:18;2.10;;;0.52;;
66702;SDS011;60933;46.398;-63.798;2023-07-31T08:52:46;1.17;;;0.50;;
66702;SDS011;60933;46.398;-63.798;2023-07-31T08:55:13;2.10;;;1.08;;
66702;SDS011;60933;46.398;-63.798;2023-07-31T08:57:39;1.20;;;0.50;;
66702;SDS011;60933;46.398;-63.798;2023-07-31T09:00:08;0.95;;;0.50;;
66702;SDS011;60933;46.398;-63.798;2023-07-31T09:05:13;1.67;;;0.73;;
66702;SDS011;60933;46.398;-63.798;2023-07-31T09:07:41;0.50;;;0.40;;
66702;SDS011;60933;46.398;-63.798;2023-07-31T09:10:11;1.55;;;0.70;;
66702;SDS011;60933;46.398;-63.798;2023-07-31T09:12:37;1.88;;;0.75;;
66702;SDS011;60933;46.398;-63.798;2023-07-31T09:15:05;3.33;;;0.90;;
66702;SDS011;60933;46.398;-63.798;2023-07-31T09:17:36;1.70;;;1.10;;
66702;SDS011;60933;46.398;-63.798;2023-07-31T09:20:18;2.08;;;0.90;;
66702;SDS011;60933;46.398;-63.798;2023-07-31T09:22:46;1.75;;;1.27;;
66702;SDS011;60933;46.398;-63.798;2023-07-31T09:25:17;1.85;;;0.88;;
66702;SDS011;60933;46.398;-63.798;2023-07-31T09:30:44;1.48;;;1.05;;
66702;SDS011;60933;46.398;-63.798;2023-07-31T09:33:14;4.25;;;1.05;;
66702;SDS011;60933;46.398;-63.798;2023-07-31T09:35:45;2.22;;;0.70;;
66702;SDS011;60933;46.398;-63.798;2023-07-31T09:38:13;1.45;;;0.77;;
66702;SDS011;60933;46.398;-63.798;2023-07-31T09:40:41;1.73;;;0.98;;
66702;SDS011;60933;46.398;-63.798;2023-07-31T09:43:08;1.70;;;1.08;;
66702;SDS011;60933;46.398;-63.798;2023-07-31T09:45:37;1.23;;;0.90;;
66702;SDS011;60933;46.398;-63.798;2023-07-31T09:48:11;1.77;;;1.05;;
66702;SDS011;60933;46.398;-63.798;2023-07-31T09:50:44;1.10;;;0.80;;
66702;SDS011;60933;46.398;-63.798;2023-07-31T09:53:11;1.60;;;1.00;;
66702;SDS011;60933;46.398;-63.798;2023-07-31T09:55:37;1.42;;;1.00;;
66702;SDS011;60933;46.398;-63.798;2023-07-31T09:58:09;1.52;;;0.90;;
66702;SDS011;60933;46.398;-63.798;2023-07-31T10:00:36;1.58;;;1.08;;
66702;SDS011;60933;46.398;-63.798;2023-07-31T10:03:07;2.17;;;1.00;;
66702;SDS011;60933;46.398;-63.798;2023-07-31T10:05:35;1.23;;;1.00;;
66702;SDS011;60933;46.398;-63.798;2023-07-31T10:08:03;1.33;;;0.90;;
66702;SDS011;60933;46.398;-63.798;2023-07-31T10:10:31;1.50;;;1.08;;
66702;SDS011;60933;46.398;-63.798;2023-07-31T10:12:58;1.42;;;0.90;;
66702;SDS011;60933;46.398;-63.798;2023-07-31T10:15:25;1.33;;;0.93;;
66702;SDS011;60933;46.398;-63.798;2023-07-31T10:17:52;1.88;;;1.30;;
66702;SDS011;60933;46.398;-63.798;2023-07-31T10:20:19;1.73;;;1.23;;
66702;SDS011;60933;46.398;-63.798;2023-07-31T10:22:46;2.47;;;1.10;;
66702;SDS011;60933;46.398;-63.798;2023-07-31T10:25:15;1.60;;;1.10;;
66702;SDS011;60933;46.398;-63.798;2023-07-31T10:27:42;2.00;;;1.10;;
66702;SDS011;60933;46.398;-63.798;2023-07-31T10:30:10;2.25;;;1.08;;
66702;SDS011;60933;46.398;-63.798;2023-07-31T10:32:40;1.70;;;1.02;;
66702;SDS011;60933;46.398;-63.798;2023-07-31T10:35:08;2.92;;;1.30;;
66702;SDS011;60933;46.398;-63.798;2023-07-31T10:37:37;2.50;;;1.10;;
66702;SDS011;60933;46.398;-63.798;2023-07-31T10:40:09;2.40;;;1.33;;
66702;SDS011;60933;46.398;-63.798;2023-07-31T10:42:48;1.60;;;1.00;;
66702;SDS011;60933;46.398;-63.798;2023-07-31T10:48:04;1.55;;;1.10;;
66702;SDS011;60933;46.398;-63.798;2023-07-31T10:50:36;3.10;;;1.30;;
66702;SDS011;60933;46.398;-63.798;2023-07-31T10:53:03;1.80;;;0.93;;
66702;SDS011;60933;46.398;-63.798;2023-07-31T10:55:41;3.00;;;1.38;;
66702;SDS011;60933;46.398;-63.798;2023-07-31T10:58:13;1.80;;;1.10;;
66702;SDS011;60933;46.398;-63.798;2023-07-31T11:00:40;2.40;;;1.23;;
66702;SDS011;60933;46.398;-63.798;2023-07-31T11:03:12;2.92;;;1.80;;
66702;SDS011;60933;46.398;-63.798;2023-07-31T11:08:19;4.13;;;1.50;;
66702;SDS011;60933;46.398;-63.798;2023-07-31T11:13:32;1.60;;;1.30;;
66702;SDS011;60933;46.398;-63.798;2023-07-31T11:16:00;2.40;;;1.35;;
66702;SDS011;60933;46.398;-63.798;2023-07-31T11:18:26;1.90;;;1.10;;
66702;SDS011;60933;46.398;-63.798;2023-07-31T11:20:53;2.53;;;1.45;;
66702;SDS011;60933;46.398;-63.798;2023-07-31T11:23:20;2.08;;;1.23;;
66702;SDS011;60933;46.398;-63.798;2023-07-31T11:25:46;3.00;;;1.33;;
66702;SDS011;60933;46.398;-63.798;2023-07-31T11:28:13;1.80;;;1.10;;
66702;SDS011;60933;46.398;-63.798;2023-07-31T11:30:41;1.95;;;1.23;;
66702;SDS011;60933;46.398;-63.798;2023-07-31T11:33:09;2.63;;;1.20;;
66702;SDS011;60933;46.398;-63.798;2023-07-31T11:35:55;3.15;;;1.20;;
66702;SDS011;60933;46.398;-63.798;2023-07-31T11:38:26;1.90;;;1.20;;
66702;SDS011;60933;46.398;-63.798;2023-07-31T11:40:53;3.13;;;1.30;;
66702;SDS011;60933;46.398;-63.798;2023-07-31T11:43:20;3.45;;;1.73;;
66702;SDS011;60933;46.398;-63.798;2023-07-31T11:45:48;4.60;;;1.50;;
66702;SDS011;60933;46.398;-63.798;2023-07-31T11:48:18;3.42;;;1.45;;
66702;SDS011;60933;46.398;-63.798;2023-07-31T11:50:46;2.50;;;1.30;;
66702;SDS011;60933;46.398;-63.798;2023-07-31T11:53:14;3.50;;;1.20;;
66702;SDS011;60933;46.398;-63.798;2023-07-31T11:55:42;3.00;;;1.55;;
66702;SDS011;60933;46.398;-63.798;2023-07-31T11:58:09;2.88;;;1.40;;
66702;SDS011;60933;46.398;-63.798;2023-07-31T12:00:35;9.32;;;1.73;;
66702;SDS011;60933;46.398;-63.798;2023-07-31T12:03:02;4.53;;;1.40;;
66702;SDS011;60933;46.398;-63.798;2023-07-31T12:05:28;3.08;;;1.30;;
66702;SDS011;60933;46.398;-63.798;2023-07-31T12:07:55;3.20;;;1.30;;
66702;SDS011;60933;46.398;-63.798;2023-07-31T12:10:31;4.00;;;1.42;;
66702;SDS011;60933;46.398;-63.798;2023-07-31T12:13:04;4.32;;;1.35;;
66702;SDS011;60933;46.398;-63.798;2023-07-31T12:15:36;4.28;;;1.60;;
66702;SDS011;60933;46.398;-63.798;2023-07-31T12:18:04;14.82;;;1.88;;
66702;SDS011;60933;46.398;-63.798;2023-07-31T12:20:32;4.72;;;1.30;;
66702;SDS011;60933;46.398;-63.798;2023-07-31T12:22:59;3.65;;;1.40;;
66702;SDS011;60933;46.398;-63.798;2023-07-31T12:25:29;4.53;;;1.08;;
66702;SDS011;60933;46.398;-63.798;2023-07-31T12:27:56;2.60;;;0.98;;
66702;SDS011;60933;46.398;-63.798;2023-07-31T12:30:27;4.53;;;1.20;;
66702;SDS011;60933;46.398;-63.798;2023-07-31T12:32:54;10.95;;;2.15;;
66702;SDS011;60933;46.398;-63.798;2023-07-31T12:35:20;4.70;;;1.48;;
66702;SDS011;60933;46.398;-63.798;2023-07-31T12:37:46;2.92;;;1.27;;
66702;SDS011;60933;46.398;-63.798;2023-07-31T12:40:13;3.10;;;1.33;;
66702;SDS011;60933;46.398;-63.798;2023-07-31T12:42:40;2.97;;;1.30;;
66702;SDS011;60933;46.398;-63.798;2023-07-31T12:45:07;5.32;;;1.25;;
66702;SDS011;60933;46.398;-63.798;2023-07-31T12:47:33;2.78;;;1.45;;
66702;SDS011;60933;46.398;-63.798;2023-07-31T12:49:59;8.98;;;1.40;;
66702;SDS011;60933;46.398;-63.798;2023-07-31T12:52:25;10.30;;;1.80;;
66702;SDS011;60933;46.398;-63.798;2023-07-31T12:54:51;5.32;;;1.50;;
66702;SDS011;60933;46.398;-63.798;2023-07-31T12:57:17;5.82;;;1.30;;
66702;SDS011;60933;46.398;-63.798;2023-07-31T12:59:45;2.97;;;1.30;;
66702;SDS011;60933;46.398;-63.798;2023-07-31T13:02:11;4.88;;;1.65;;
66702;SDS011;60933;46.398;-63.798;2023-07-31T13:04:37;5.68;;;1.58;;
66702;SDS011;60933;46.398;-63.798;2023-07-31T13:07:03;2.25;;;1.30;;
66702;SDS011;60933;46.398;-63.798;2023-07-31T13:09:30;4.20;;;1.50;;
66702;SDS011;60933;46.398;-63.798;2023-07-31T13:11:56;3.05;;;1.10;;
66702;SDS011;60933;46.398;-63.798;2023-07-31T13:14:22;2.35;;;1.50;;
66702;SDS011;60933;46.398;-63.798;2023-07-31T13:16:48;2.38;;;1.15;;
66702;SDS011;60933;46.398;-63.798;2023-07-31T13:19:14;4.13;;;1.63;;
66702;SDS011;60933;46.398;-63.798;2023-07-31T13:21:40;3.00;;;1.10;;
66702;SDS011;60933;46.398;-63.798;2023-07-31T13:24:06;1.70;;;1.20;;
66702;SDS011;60933;46.398;-63.798;2023-07-31T13:26:32;3.78;;;1.20;;
66702;SDS011;60933;46.398;-63.798;2023-07-31T13:28:59;3.30;;;1.20;;
66702;SDS011;60933;46.398;-63.798;2023-07-31T13:31:25;2.80;;;1.63;;
66702;SDS011;60933;46.398;-63.798;2023-07-31T13:33:51;3.17;;;1.25;;
66702;SDS011;60933;46.398;-63.798;2023-07-31T13:36:17;1.90;;;1.23;;
66702;SDS011;60933;46.398;-63.798;2023-07-31T13:38:43;2.53;;;1.35;;
66702;SDS011;60933;46.398;-63.798;2023-07-31T13:41:10;2.67;;;1.20;;
66702;SDS011;60933;46.398;-63.798;2023-07-31T13:43:36;1.55;;;1.00;;
66702;SDS011;60933;46.398;-63.798;2023-07-31T13:46:02;2.35;;;1.40;;
66702;SDS011;60933;46.398;-63.798;2023-07-31T13:48:34;1.90;;;1.23;;
66702;SDS011;60933;46.398;-63.798;2023-07-31T13:51:01;2.38;;;1.50;;
66702;SDS011;60933;46.398;-63.798;2023-07-31T13:53:27;2.55;;;1.40;;
66702;SDS011;60933;46.398;-63.798;2023-07-31T13:55:53;2.47;;;1.25;;
66702;SDS011;60933;46.398;-63.798;2023-07-31T13:58:20;1.98;;;1.23;;
66702;SDS011;60933;46.398;-63.798;2023-07-31T14:00:46;2.90;;;1.38;;
66702;SDS011;60933;46.398;-63.798;2023-07-31T14:03:12;1.90;;;1.52;;
66702;SDS011;60933;46.398;-63.798;2023-07-31T14:05:38;2.25;;;1.35;;
66702;SDS011;60933;46.398;-63.798;2023-07-31T14:08:04;2.70;;;1.35;;
66702;SDS011;60933;46.398;-63.798;2023-07-31T14:10:31;1.75;;;1.20;;
66702;SDS011;60933;46.398;-63.798;2023-07-31T14:12:57;2.88;;;1.35;;
66702;SDS011;60933;46.398;-63.798;2023-07-31T14:15:23;2.10;;;1.45;;
66702;SDS011;60933;46.398;-63.798;2023-07-31T14:17:49;2.00;;;1.15;;
66702;SDS011;60933;46.398;-63.798;2023-07-31T14:20:15;1.80;;;1.30;;
66702;SDS011;60933;46.398;-63.798;2023-07-31T14:22:41;1.80;;;1.50;;
66702;SDS011;60933;46.398;-63.798;2023-07-31T14:25:07;3.47;;;1.30;;
66702;SDS011;60933;46.398;-63.798;2023-07-31T14:27:35;2.13;;;1.10;;
66702;SDS011;60933;46.398;-63.798;2023-07-31T14:30:02;1.60;;;1.20;;
66702;SDS011;60933;46.398;-63.798;2023-07-31T14:32:28;1.92;;;1.17;;
66702;SDS011;60933;46.398;-63.798;2023-07-31T14:34:54;2.90;;;1.40;;
66702;SDS011;60933;46.398;-63.798;2023-07-31T14:37:20;1.92;;;1.40;;
66702;SDS011;60933;46.398;-63.798;2023-07-31T14:39:47;1.88;;;1.20;;
66702;SDS011;60933;46.398;-63.798;2023-07-31T14:42:13;2.10;;;1.25;;
66702;SDS011;60933;46.398;-63.798;2023-07-31T14:44:41;1.52;;;1.13;;